createdAt,value
2017-08-01T00:01:51.855Z,53.50
2017-08-01T00:04:19.374Z,53.60
2017-08-01T00:06:46.881Z,53.60
2017-08-01T00:09:14.406Z,53.60
2017-08-01T00:11:42.669Z,54.60
2017-08-01T00:14:10.177Z,53.60
2017-08-01T00:16:37.691Z,53.60
2017-08-01T00:19:05.222Z,53.60
2017-08-01T00:21:32.708Z,53.50
2017-08-01T00:24:00.229Z,53.50
2017-08-01T00:26:27.770Z,53.60
2017-08-01T00:28:55.298Z,53.50
2017-08-01T00:31:23.583Z,53.50
2017-08-01T00:33:51.099Z,53.60
2017-08-01T00:36:18.606Z,53.50
2017-08-01T00:38:46.129Z,53.50
2017-08-01T00:41:13.617Z,53.40
2017-08-01T00:43:41.135Z,53.40
2017-08-01T00:46:08.637Z,53.40
2017-08-01T00:48:36.144Z,53.50
2017-08-01T00:51:03.662Z,53.50
2017-08-01T00:53:31.189Z,53.40
2017-08-01T00:55:59.465Z,53.40
2017-08-01T00:58:27.816Z,53.30
2017-08-01T01:00:55.325Z,53.30
2017-08-01T01:03:22.842Z,53.30
2017-08-01T01:05:50.355Z,53.30
2017-08-01T01:08:17.847Z,53.30
2017-08-01T01:10:45.357Z,53.30
2017-08-01T01:13:12.861Z,53.20
2017-08-01T01:15:40.388Z,53.20
2017-08-01T01:18:07.888Z,53.20
2017-08-01T01:20:35.385Z,53.20
2017-08-01T01:23:02.898Z,53.20
2017-08-01T01:25:30.423Z,53.20
2017-08-01T01:27:57.942Z,53.30
2017-08-01T01:30:26.206Z,53.30
2017-08-01T01:32:54.472Z,54.00
2017-08-01T01:35:22.010Z,53.20
2017-08-01T01:37:49.525Z,53.20
2017-08-01T01:40:17.046Z,53.20
2017-08-01T01:42:44.566Z,53.20
2017-08-01T01:45:12.044Z,53.20
2017-08-01T01:47:39.562Z,53.20
2017-08-01T01:50:07.135Z,53.20
2017-08-01T01:52:34.634Z,53.20
2017-08-01T01:55:02.143Z,53.30
2017-08-01T01:57:29.663Z,53.30
2017-08-01T01:59:57.153Z,53.50
2017-08-01T02:02:24.665Z,53.50
2017-08-01T02:04:52.185Z,53.40
2017-08-01T02:07:19.817Z,53.40
2017-08-01T02:09:48.097Z,53.50
2017-08-01T02:12:15.655Z,53.50
2017-08-01T02:14:43.222Z,53.40
2017-08-01T02:17:10.749Z,53.40
2017-08-01T02:19:38.260Z,53.40
2017-08-01T02:22:05.774Z,52.80
2017-08-01T02:24:34.192Z,53.40
2017-08-01T02:27:01.679Z,53.40
2017-08-01T02:29:29.172Z,53.40
2017-08-01T02:31:56.708Z,53.50
2017-08-01T02:34:24.229Z,53.40
2017-08-01T02:36:51.913Z,53.40
2017-08-01T02:39:19.517Z,53.40
2017-08-01T02:41:47.921Z,53.50
2017-08-01T02:44:15.434Z,53.60
2017-08-01T02:46:42.949Z,53.50
2017-08-01T02:49:10.445Z,53.50
2017-08-01T02:51:37.946Z,53.50
2017-08-01T02:54:05.453Z,53.40
2017-08-01T02:56:32.954Z,53.40
2017-08-01T02:59:00.481Z,53.40
2017-08-01T03:01:28.765Z,53.60
2017-08-01T03:06:48.199Z,53.40
2017-08-01T03:09:15.717Z,53.50
2017-08-01T03:11:43.227Z,53.40
2017-08-01T03:14:10.730Z,53.40
2017-08-01T03:16:39.002Z,53.50
2017-08-01T03:19:07.343Z,53.50
2017-08-01T03:21:34.837Z,53.40
2017-08-01T03:24:03.129Z,53.50
2017-08-01T03:26:30.646Z,53.50
2017-08-01T03:28:58.172Z,53.40
2017-08-01T03:31:25.669Z,53.40
2017-08-01T03:33:53.962Z,53.60
2017-08-01T03:36:21.466Z,53.50
2017-08-01T03:38:48.979Z,53.50
2017-08-01T03:41:17.285Z,53.30
2017-08-01T03:43:44.794Z,53.30
2017-08-01T03:46:13.077Z,53.30
2017-08-01T03:48:40.586Z,53.30
2017-08-01T03:51:08.090Z,53.30
2017-08-01T03:53:36.370Z,53.50
2017-08-01T03:56:04.642Z,53.40
2017-08-01T03:58:32.924Z,53.50
2017-08-01T04:01:01.181Z,53.40
2017-08-01T04:03:28.715Z,53.40
2017-08-01T04:05:56.237Z,53.40
2017-08-01T04:08:23.759Z,53.40
2017-08-01T04:10:51.278Z,53.40
2017-08-01T04:13:20.729Z,53.40
2017-08-01T04:15:48.261Z,53.30
2017-08-01T04:18:15.797Z,53.40
2017-08-01T04:20:43.304Z,53.30
2017-08-01T04:23:11.582Z,53.60
2017-08-01T04:25:39.869Z,53.50
2017-08-01T04:28:07.387Z,53.50
2017-08-01T04:30:34.910Z,53.50
2017-08-01T04:33:02.528Z,53.50
2017-08-01T04:35:30.825Z,53.50
2017-08-01T04:37:58.321Z,53.50
2017-08-01T04:40:25.821Z,53.50
2017-08-01T04:42:54.177Z,53.50
2017-08-01T04:45:21.754Z,53.40
2017-08-01T04:47:49.257Z,53.40
2017-08-01T04:50:16.777Z,52.80
2017-08-01T04:52:45.037Z,53.50
2017-08-01T04:55:12.570Z,53.50
2017-08-01T04:57:40.086Z,53.60
2017-08-01T05:00:07.589Z,53.50
2017-08-01T05:02:35.113Z,53.50
2017-08-01T05:05:02.656Z,53.50
2017-08-01T05:07:31.155Z,53.40
2017-08-01T05:09:58.677Z,53.40
2017-08-01T05:12:26.998Z,54.30
2017-08-01T05:14:54.513Z,53.50
2017-08-01T05:17:22.780Z,53.50
2017-08-01T05:19:50.298Z,53.50
2017-08-01T05:22:17.818Z,53.50
2017-08-01T05:24:46.104Z,53.50
2017-08-01T05:27:13.603Z,53.40
2017-08-01T05:29:41.114Z,53.60
2017-08-01T05:32:08.612Z,53.60
2017-08-01T05:34:36.158Z,53.60
2017-08-01T05:37:03.670Z,53.70
2017-08-01T05:39:31.956Z,53.60
2017-08-01T05:42:00.254Z,53.60
2017-08-01T05:44:27.918Z,53.50
2017-08-01T05:46:55.417Z,53.60
2017-08-01T05:49:22.958Z,53.60
2017-08-01T05:51:50.457Z,53.60
2017-08-01T05:54:18.758Z,53.60
2017-08-01T05:56:46.292Z,53.60
2017-08-01T05:59:13.799Z,53.70
2017-08-01T06:01:41.344Z,53.70
2017-08-01T06:04:08.876Z,53.70
2017-08-01T06:06:37.177Z,53.90
2017-08-01T06:09:04.863Z,53.80
2017-08-01T06:11:32.370Z,53.80
2017-08-01T06:14:00.657Z,53.80
2017-08-01T06:16:28.206Z,53.80
2017-08-01T06:18:56.489Z,53.70
2017-08-01T06:21:24.054Z,53.60
2017-08-01T06:23:51.605Z,53.70
2017-08-01T06:26:19.097Z,53.60
2017-08-01T06:28:46.642Z,53.70
2017-08-01T06:31:14.176Z,53.70
2017-08-01T06:33:42.586Z,53.70
2017-08-01T06:36:10.121Z,53.70
2017-08-01T06:38:37.677Z,53.70
2017-08-01T06:41:05.986Z,53.60
2017-08-01T06:43:33.510Z,53.50
2017-08-01T06:46:01.782Z,53.70
2017-08-01T06:48:30.047Z,53.80
2017-08-01T06:50:57.585Z,53.70
2017-08-01T06:53:25.089Z,53.60
2017-08-01T06:55:52.606Z,53.60
2017-08-01T06:58:20.145Z,53.60
2017-08-01T07:00:47.661Z,53.70
2017-08-01T07:03:15.932Z,53.80
2017-08-01T07:05:43.455Z,53.70
2017-08-01T07:08:11.003Z,53.70
2017-08-01T07:10:38.514Z,53.60
2017-08-01T07:13:06.028Z,53.70
2017-08-01T07:15:33.730Z,53.70
2017-08-01T07:18:01.266Z,53.60
2017-08-01T07:20:28.772Z,53.70
2017-08-01T07:22:56.306Z,53.80
2017-08-01T07:25:23.928Z,53.80
2017-08-01T07:27:51.452Z,53.70
2017-08-01T07:30:19.036Z,53.70
2017-08-01T07:32:46.536Z,53.70
2017-08-01T07:35:14.167Z,53.60
2017-08-01T07:37:41.654Z,53.60
2017-08-01T07:40:09.164Z,53.60
2017-08-01T07:42:36.680Z,53.60
2017-08-01T07:45:04.185Z,53.50
2017-08-01T07:47:31.699Z,53.50
2017-08-01T07:49:59.219Z,53.60
2017-08-01T07:52:26.742Z,53.80
2017-08-01T07:54:54.262Z,53.60
2017-08-01T07:57:21.815Z,53.60
2017-08-01T07:59:50.103Z,53.60
2017-08-01T08:02:17.741Z,53.60
2017-08-01T08:04:45.999Z,53.60
2017-08-01T08:07:13.536Z,53.60
2017-08-01T08:09:41.042Z,53.60
2017-08-01T08:12:09.343Z,53.60
2017-08-01T08:14:36.889Z,53.60
2017-08-01T08:17:04.421Z,53.60
2017-08-01T08:19:31.946Z,53.60
2017-08-01T08:21:59.492Z,53.70
2017-08-01T08:24:27.025Z,53.70
2017-08-01T08:26:54.522Z,53.80
2017-08-01T08:29:22.041Z,53.70
2017-08-01T08:31:49.581Z,53.70
2017-08-01T08:34:17.858Z,53.70
2017-08-01T08:36:46.151Z,53.70
2017-08-01T08:39:13.658Z,53.70
2017-08-01T08:41:41.161Z,53.60
2017-08-01T08:44:08.694Z,54.60
2017-08-01T08:46:36.206Z,53.60
2017-08-01T08:49:03.757Z,53.60
2017-08-01T08:51:31.256Z,53.60
2017-08-01T08:53:58.851Z,53.60
2017-08-01T08:56:27.113Z,53.70
2017-08-01T08:58:55.389Z,53.70
2017-08-01T09:01:23.694Z,53.80
2017-08-01T09:03:51.185Z,53.80
2017-08-01T09:06:18.743Z,53.60
2017-08-01T09:08:46.253Z,53.50
2017-08-01T09:11:14.546Z,53.50
2017-08-01T09:13:42.093Z,53.50
2017-08-01T09:16:10.027Z,53.50
2017-08-01T09:18:37.541Z,53.50
2017-08-01T09:21:05.045Z,53.50
2017-08-01T09:23:32.553Z,53.50
2017-08-01T09:26:00.070Z,53.50
2017-08-01T09:28:28.382Z,53.80
2017-08-01T09:30:55.953Z,53.70
2017-08-01T09:33:23.518Z,53.60
2017-08-01T09:35:51.115Z,53.60
2017-08-01T09:38:18.624Z,53.60
2017-08-01T09:40:46.140Z,53.70
2017-08-01T09:43:13.640Z,53.60
2017-08-01T09:45:41.162Z,53.60
2017-08-01T09:48:09.466Z,53.70
2017-08-01T09:50:36.983Z,53.70
2017-08-01T09:53:04.553Z,53.60
2017-08-01T09:55:32.815Z,53.60
2017-08-01T09:58:00.320Z,53.60
2017-08-01T10:00:27.865Z,53.70
2017-08-01T10:02:55.395Z,53.70
2017-08-01T10:05:23.880Z,54.10
2017-08-01T10:07:51.382Z,53.70
2017-08-01T10:10:18.897Z,53.70
2017-08-01T10:12:47.200Z,53.60
2017-08-01T10:15:14.705Z,53.60
2017-08-01T10:17:42.224Z,53.80
2017-08-01T10:20:09.761Z,53.60
2017-08-01T10:22:37.274Z,53.70
2017-08-01T10:25:04.954Z,53.80
2017-08-01T10:27:33.377Z,53.60
2017-08-01T10:30:00.873Z,53.60
2017-08-01T10:32:28.385Z,53.90
2017-08-01T10:34:55.884Z,53.60
2017-08-01T10:37:23.414Z,53.50
2017-08-01T10:39:50.930Z,53.50
2017-08-01T10:42:19.219Z,53.90
2017-08-01T10:44:47.552Z,53.60
2017-08-01T10:47:15.072Z,53.50
2017-08-01T10:49:42.743Z,53.50
2017-08-01T10:52:10.308Z,53.40
2017-08-01T10:54:37.944Z,53.40
2017-08-01T10:57:05.512Z,53.50
2017-08-01T10:59:33.165Z,53.50
2017-08-01T11:02:01.561Z,53.80
2017-08-01T11:04:29.180Z,53.90
2017-08-01T11:06:56.792Z,53.90
2017-08-01T11:09:24.435Z,53.50
2017-08-01T11:11:52.040Z,53.50
2017-08-01T11:14:19.585Z,53.50
2017-08-01T11:16:47.172Z,53.60
2017-08-01T11:19:14.693Z,53.40
2017-08-01T11:21:42.210Z,53.50
2017-08-01T11:24:10.514Z,53.60
2017-08-01T11:26:38.047Z,53.50
2017-08-01T11:29:06.330Z,53.60
2017-08-01T11:31:34.621Z,53.50
2017-08-01T11:34:02.216Z,53.50
2017-08-01T11:36:29.859Z,53.40
2017-08-01T11:38:57.420Z,53.50
2017-08-01T11:41:24.996Z,53.50
2017-08-01T11:43:52.556Z,53.40
2017-08-01T11:46:20.091Z,53.40
2017-08-01T11:48:47.594Z,53.50
2017-08-01T11:51:15.107Z,53.50
2017-08-01T11:53:42.626Z,53.50
2017-08-01T11:56:10.924Z,53.40
2017-08-01T11:58:38.437Z,54.20
2017-08-01T12:01:05.971Z,53.40
2017-08-01T12:03:33.526Z,53.40
2017-08-01T12:06:01.027Z,53.40
2017-08-01T12:08:28.550Z,53.40
2017-08-01T12:10:56.050Z,53.50
2017-08-01T12:13:24.320Z,53.70
2017-08-01T12:15:51.819Z,53.60
2017-08-01T12:18:19.328Z,53.50
2017-08-01T12:20:46.866Z,53.40
2017-08-01T12:23:14.355Z,53.50
2017-08-01T12:25:42.618Z,53.50
2017-08-01T12:28:10.142Z,53.40
2017-08-01T12:30:37.678Z,53.40
2017-08-01T12:33:05.186Z,53.50
2017-08-01T12:35:32.705Z,53.50
2017-08-01T12:38:00.213Z,53.50
2017-08-01T12:40:27.730Z,53.40
2017-08-01T12:42:55.253Z,53.40
2017-08-01T12:45:22.766Z,53.40
2017-08-01T12:47:50.315Z,53.30
2017-08-01T12:50:17.809Z,53.40
2017-08-01T12:52:46.079Z,53.40
2017-08-01T12:55:14.374Z,54.20
2017-08-01T12:57:41.885Z,53.40
2017-08-01T13:00:09.408Z,53.30
2017-08-01T13:02:36.918Z,53.30
2017-08-01T13:05:05.380Z,53.40
2017-08-01T13:07:32.886Z,53.40
2017-08-01T13:10:00.519Z,53.40
2017-08-01T13:12:28.034Z,53.40
2017-08-01T13:14:55.541Z,53.40
2017-08-01T13:17:23.852Z,53.00
2017-08-01T13:19:51.429Z,53.30
2017-08-01T13:22:18.959Z,53.60
2017-08-01T13:24:46.624Z,53.50
2017-08-01T13:27:14.166Z,53.50
2017-08-01T13:29:42.457Z,53.50
2017-08-01T13:32:09.960Z,53.50
2017-08-01T13:34:37.494Z,53.40
2017-08-01T13:37:05.038Z,53.40
2017-08-01T13:39:32.529Z,53.50
2017-08-01T13:42:00.094Z,53.60
2017-08-01T13:44:27.614Z,53.60
2017-08-01T13:46:56.126Z,53.40
2017-08-01T13:49:23.660Z,53.40
2017-08-01T13:51:51.187Z,53.40
2017-08-01T13:54:19.458Z,53.80
2017-08-01T13:56:47.763Z,53.50
2017-08-01T13:59:15.263Z,53.50
2017-08-01T14:01:42.798Z,53.30
2017-08-01T14:04:10.322Z,53.40
2017-08-01T14:06:38.615Z,53.70
2017-08-01T14:09:06.139Z,53.60
2017-08-01T14:11:34.411Z,53.60
2017-08-01T14:14:01.943Z,53.50
2017-08-01T14:16:29.458Z,53.90
2017-08-01T14:18:56.982Z,53.80
2017-08-01T14:21:24.499Z,53.80
2017-08-01T14:23:52.038Z,53.70
2017-08-01T14:26:19.562Z,53.50
2017-08-01T14:28:47.170Z,53.40
2017-08-01T14:31:14.728Z,53.70
2017-08-01T14:33:42.226Z,53.70
2017-08-01T14:36:09.743Z,53.80
2017-08-01T14:38:37.277Z,53.70
2017-08-01T14:41:04.821Z,53.60
2017-08-01T14:43:33.128Z,53.90
2017-08-01T14:46:00.681Z,53.50
2017-08-01T14:48:28.219Z,53.40
2017-08-01T14:50:56.531Z,53.40
2017-08-01T14:53:24.038Z,53.40
2017-08-01T14:55:51.575Z,53.60
2017-08-01T14:58:19.073Z,53.40
2017-08-01T15:00:47.477Z,53.40
2017-08-01T15:03:15.006Z,53.40
2017-08-01T15:05:43.292Z,53.40
2017-08-01T15:08:11.600Z,53.70
2017-08-01T15:10:39.118Z,53.70
2017-08-01T15:13:06.653Z,53.50
2017-08-01T15:15:34.206Z,53.40
2017-08-01T15:18:01.691Z,53.30
2017-08-01T15:20:30.050Z,53.40
2017-08-01T15:22:57.559Z,53.40
2017-08-01T15:25:25.067Z,53.50
2017-08-01T15:27:52.650Z,53.70
2017-08-01T15:30:20.937Z,53.40
2017-08-01T15:32:48.491Z,53.40
2017-08-01T15:35:16.030Z,53.40
2017-08-01T15:37:43.625Z,53.40
2017-08-01T15:40:11.156Z,53.40
2017-08-01T15:42:39.425Z,53.20
2017-08-01T15:45:06.960Z,53.40
2017-08-01T15:47:34.468Z,53.40
2017-08-01T15:50:01.988Z,53.40
2017-08-01T15:52:29.485Z,53.50
2017-08-01T15:54:56.997Z,53.50
2017-08-01T15:57:24.558Z,53.40
2017-08-01T15:59:52.067Z,53.40
2017-08-01T16:02:19.614Z,53.40
2017-08-01T16:04:47.124Z,53.40
2017-08-01T16:07:14.643Z,53.40
2017-08-01T16:09:42.238Z,53.40
2017-08-01T16:12:09.794Z,53.40
2017-08-01T16:14:37.321Z,53.40
2017-08-01T16:17:04.843Z,53.40
2017-08-01T16:19:33.139Z,54.50
2017-08-01T16:22:00.682Z,53.40
2017-08-01T16:24:28.934Z,53.60
2017-08-01T16:26:56.457Z,53.40
2017-08-01T16:29:23.959Z,53.60
2017-08-01T16:31:51.429Z,53.40
2017-08-01T16:34:19.810Z,53.50
2017-08-01T16:36:48.076Z,53.40
2017-08-01T16:39:15.590Z,53.30
2017-08-01T16:41:43.118Z,53.40
2017-08-01T16:44:10.651Z,53.30
2017-08-01T16:46:38.927Z,54.50
2017-08-01T16:49:07.224Z,53.70
2017-08-01T16:51:34.837Z,54.50
2017-08-01T16:54:02.439Z,53.80
2017-08-01T16:56:30.715Z,53.50
2017-08-01T16:58:58.999Z,53.40
2017-08-01T17:01:26.561Z,53.40
2017-08-01T17:03:54.114Z,53.40
2017-08-01T17:06:21.669Z,53.40
2017-08-01T17:08:50.023Z,53.40
2017-08-01T17:11:18.145Z,53.40
2017-08-01T17:13:45.673Z,53.40
2017-08-01T17:16:13.998Z,53.50
2017-08-01T17:18:41.515Z,53.40
2017-08-01T17:21:09.048Z,53.40
2017-08-01T17:23:36.548Z,53.40
2017-08-01T17:28:39.152Z,53.40
2017-08-01T17:31:06.670Z,53.40
2017-08-01T17:33:35.010Z,53.40
2017-08-01T17:36:02.546Z,53.40
2017-08-01T17:38:30.075Z,53.60
2017-08-01T17:40:57.838Z,53.50
2017-08-01T17:43:26.110Z,53.40
2017-08-01T17:45:53.655Z,53.40
2017-08-01T17:48:21.227Z,53.40
2017-08-01T17:50:49.501Z,53.70
2017-08-01T17:53:17.862Z,53.60
2017-08-01T17:55:45.369Z,53.60
2017-08-01T17:58:12.889Z,53.40
2017-08-01T18:00:41.209Z,53.60
2017-08-01T18:03:08.759Z,53.40
2017-08-01T18:05:36.274Z,53.40
2017-08-01T18:08:04.010Z,53.40
2017-08-01T18:10:31.561Z,53.40
2017-08-01T18:12:59.222Z,53.40
2017-08-01T18:15:26.781Z,53.50
2017-08-01T18:17:54.285Z,53.40
2017-08-01T18:20:22.588Z,53.50
2017-08-01T18:22:50.119Z,53.40
2017-08-01T18:25:18.447Z,53.70
2017-08-01T18:27:45.995Z,53.70
2017-08-01T18:30:13.572Z,53.60
2017-08-01T18:32:41.152Z,53.50
2017-08-01T18:35:08.678Z,53.60
2017-08-01T18:37:36.218Z,53.50
2017-08-01T18:40:03.769Z,53.50
2017-08-01T18:42:31.373Z,53.50
2017-08-01T18:44:58.942Z,53.50
2017-08-01T18:47:26.566Z,53.50
2017-08-01T18:49:54.112Z,53.50
2017-08-01T18:52:21.638Z,53.70
2017-08-01T18:54:49.138Z,53.60
2017-08-01T18:57:16.753Z,53.60
2017-08-01T18:59:44.289Z,53.60
2017-08-01T19:02:11.921Z,53.60
2017-08-01T19:04:39.680Z,53.60
2017-08-01T19:07:07.245Z,53.60
2017-08-01T19:09:34.795Z,53.60
2017-08-01T19:12:02.344Z,53.50
2017-08-01T19:14:29.886Z,53.60
2017-08-01T19:16:58.252Z,53.70
2017-08-01T19:19:26.585Z,54.50
2017-08-01T19:21:54.117Z,53.70
2017-08-01T19:24:21.684Z,53.60
2017-08-01T19:26:49.227Z,53.70
2017-08-01T19:29:16.793Z,53.70
2017-08-01T19:31:44.396Z,53.70
2017-08-01T19:34:11.928Z,53.70
2017-08-01T19:36:39.451Z,53.60
2017-08-01T19:39:06.987Z,54.40
2017-08-01T19:41:34.543Z,53.60
2017-08-01T19:44:02.084Z,53.70
2017-08-01T19:46:29.666Z,53.70
2017-08-01T19:48:57.188Z,53.80
2017-08-01T19:51:25.507Z,54.00
2017-08-01T19:53:53.083Z,54.00
2017-08-01T19:56:20.623Z,54.70
2017-08-01T19:58:48.189Z,53.80
2017-08-01T20:01:15.707Z,53.90
2017-08-01T20:03:43.258Z,53.90
2017-08-01T20:06:11.592Z,54.00
2017-08-01T20:08:39.227Z,54.00
2017-08-01T20:11:06.721Z,54.00
2017-08-01T20:13:34.279Z,53.80
2017-08-01T20:16:01.801Z,53.90
2017-08-01T20:18:29.343Z,54.70
2017-08-01T20:20:56.895Z,53.90
2017-08-01T20:23:25.220Z,54.00
2017-08-01T20:25:52.822Z,54.00
2017-08-01T20:28:21.113Z,54.00
2017-08-01T20:30:48.619Z,54.00
2017-08-01T20:33:16.248Z,53.90
2017-08-01T20:35:43.777Z,54.00
2017-08-01T20:38:12.058Z,54.20
2017-08-01T20:40:39.597Z,54.10
2017-08-01T20:43:07.144Z,53.90
2017-08-01T20:45:34.764Z,53.80
2017-08-01T20:48:02.266Z,54.00
2017-08-01T20:50:29.794Z,54.00
2017-08-01T20:52:57.444Z,53.90
2017-08-01T20:55:24.978Z,54.00
2017-08-01T20:57:52.479Z,53.90
2017-08-01T21:00:20.055Z,54.00
2017-08-01T21:02:47.563Z,54.00
2017-08-01T21:05:15.122Z,54.00
2017-08-01T21:07:42.642Z,53.90
2017-08-01T21:10:10.964Z,54.00
2017-08-01T21:12:38.513Z,54.00
2017-08-01T21:15:06.021Z,54.00
2017-08-01T21:17:33.572Z,54.00
2017-08-01T21:20:01.071Z,54.10
2017-08-01T21:22:28.644Z,53.90
2017-08-01T21:24:56.232Z,54.00
2017-08-01T21:27:23.761Z,54.00
2017-08-01T21:29:51.315Z,54.00
2017-08-01T21:32:18.833Z,53.90
2017-08-01T21:34:46.359Z,54.00
2017-08-01T21:37:13.893Z,54.10
2017-08-01T21:39:41.510Z,54.00
2017-08-01T21:42:09.052Z,54.10
2017-08-01T21:44:36.581Z,54.00
2017-08-01T21:47:04.103Z,54.30
2017-08-01T21:49:32.370Z,54.80
2017-08-01T21:51:59.909Z,54.10
2017-08-01T21:54:27.406Z,54.10
2017-08-01T21:56:55.132Z,54.10
2017-08-01T21:59:22.668Z,54.10
2017-08-01T22:01:50.171Z,54.30
2017-08-01T22:04:18.483Z,53.80
2017-08-01T22:06:46.000Z,54.40
2017-08-01T22:09:13.540Z,54.20
2017-08-01T22:11:41.069Z,54.20
2017-08-01T22:14:08.591Z,54.40
2017-08-01T22:16:36.875Z,54.10
2017-08-01T22:19:04.401Z,54.00
2017-08-01T22:21:31.947Z,54.10
2017-08-01T22:23:59.450Z,54.20
2017-08-01T22:26:26.998Z,54.10
2017-08-01T22:28:55.285Z,54.10
2017-08-01T22:31:23.027Z,54.00
2017-08-01T22:33:51.321Z,54.20
2017-08-01T22:36:19.590Z,54.30
2017-08-01T22:38:47.865Z,54.80
2017-08-01T22:41:16.133Z,54.20
2017-08-01T22:43:44.432Z,54.90
2017-08-01T22:46:12.070Z,54.40
2017-08-01T22:48:39.621Z,54.20
2017-08-01T22:51:07.176Z,54.10
2017-08-01T22:53:34.638Z,54.10
2017-08-01T22:56:02.209Z,54.30
2017-08-01T22:58:30.494Z,54.20
2017-08-01T23:00:58.823Z,54.10
2017-08-01T23:03:26.384Z,54.10
2017-08-01T23:05:53.945Z,54.20
2017-08-01T23:08:21.644Z,54.10
2017-08-01T23:10:49.915Z,54.20
2017-08-01T23:13:18.310Z,54.20
2017-08-01T23:15:45.816Z,54.00
2017-08-01T23:18:13.318Z,54.10
2017-08-01T23:20:41.609Z,54.10
2017-08-01T23:23:09.093Z,54.10
2017-08-01T23:25:36.651Z,54.10
2017-08-01T23:28:04.154Z,54.10
2017-08-01T23:30:31.657Z,54.20
2017-08-01T23:32:59.231Z,54.20
2017-08-01T23:35:26.742Z,54.20
2017-08-01T23:37:55.096Z,54.10
2017-08-01T23:40:22.610Z,54.10
2017-08-01T23:42:50.143Z,54.20
2017-08-01T23:45:18.400Z,54.30
2017-08-01T23:47:46.693Z,54.30
2017-08-01T23:50:14.967Z,54.30
2017-08-01T23:52:43.246Z,54.10
2017-08-01T23:55:10.767Z,54.10
2017-08-01T23:57:38.291Z,54.10
